createdAt,value
2023-05-17T00:04:00.944Z,83.77
2023-05-17T00:08:13.760Z,80.68
2023-05-17T00:12:26.887Z,81.64
2023-05-17T00:16:39.319Z,81.48
2023-05-17T00:20:51.759Z,81.42
2023-05-17T00:25:08.326Z,81.90
2023-05-17T00:29:20.828Z,78.47
2023-05-17T00:33:33.627Z,80.00
2023-05-17T00:37:48.242Z,81.29
2023-05-17T00:42:02.829Z,78.92
2023-05-17T00:46:16.440Z,79.41
2023-05-17T00:50:29.110Z,79.25
2023-05-17T00:54:41.908Z,77.68
2023-05-17T00:58:54.922Z,76.62
2023-05-17T01:03:08.530Z,76.23
2023-05-17T01:07:21.097Z,76.33
2023-05-17T01:11:53.420Z,77.55
2023-05-17T01:16:11.106Z,76.66
2023-05-17T01:20:32.212Z,76.79
2023-05-17T01:25:16.505Z,76.81
2023-05-17T01:29:30.560Z,77.42
2023-05-17T01:33:43.328Z,77.43
2023-05-17T01:37:56.263Z,77.11
2023-05-17T01:42:18.873Z,78.66
2023-05-17T01:46:41.379Z,79.34
2023-05-17T01:50:57.071Z,80.33
2023-05-17T01:55:18.351Z,79.55
2023-05-17T01:59:32.092Z,79.52
2023-05-17T02:03:48.913Z,77.07
2023-05-17T02:08:02.864Z,76.19
2023-05-17T02:12:15.480Z,75.66
2023-05-17T02:16:34.434Z,73.33
2023-05-17T02:20:47.085Z,71.57
2023-05-17T02:24:59.691Z,70.23
2023-05-17T02:29:12.117Z,69.85
2023-05-17T02:33:24.726Z,71.50
2023-05-17T02:37:37.223Z,70.76
2023-05-17T02:41:50.856Z,71.96
2023-05-17T02:46:03.237Z,71.87
2023-05-17T02:50:15.891Z,71.42
2023-05-17T02:54:28.495Z,70.91
2023-05-17T02:58:41.792Z,71.76
2023-05-17T03:02:54.349Z,71.60
2023-05-17T03:07:07.419Z,71.59
2023-05-17T03:11:20.744Z,71.78
2023-05-17T03:15:33.318Z,71.69
2023-05-17T03:19:46.017Z,71.93
2023-05-17T03:23:59.070Z,72.61
2023-05-17T03:28:11.620Z,73.07
2023-05-17T03:32:24.297Z,72.13
2023-05-17T03:36:39.697Z,72.53
2023-05-17T03:40:53.540Z,72.61
2023-05-17T03:45:06.899Z,71.10
2023-05-17T03:49:19.530Z,71.86
2023-05-17T03:53:51.724Z,71.86
2023-05-17T03:58:05.337Z,71.15
2023-05-17T04:02:18.099Z,72.73
2023-05-17T04:06:30.910Z,71.71
2023-05-17T04:10:43.517Z,72.33
2023-05-17T04:14:56.056Z,71.42
2023-05-17T04:19:09.996Z,70.54
2023-05-17T04:23:22.626Z,70.93
2023-05-17T04:27:35.602Z,67.41
2023-05-17T04:31:51.029Z,67.70
2023-05-17T04:36:04.263Z,68.44
2023-05-17T04:40:18.329Z,68.54
2023-05-17T04:44:32.062Z,66.26
2023-05-17T04:48:44.921Z,66.00
2023-05-17T04:52:57.381Z,66.29
2023-05-17T04:57:09.887Z,67.76
2023-05-17T05:01:43.841Z,69.96
2023-05-17T05:05:56.444Z,68.24
2023-05-17T05:10:09.775Z,67.58
2023-05-17T05:14:25.722Z,66.19
2023-05-17T05:18:38.408Z,66.48
2023-05-17T05:22:51.620Z,67.69
2023-05-17T05:27:07.072Z,70.08
2023-05-17T05:31:21.257Z,71.70
2023-05-17T05:35:37.618Z,73.28
2023-05-17T05:39:50.094Z,74.63
2023-05-17T05:44:02.773Z,73.16
2023-05-17T05:48:15.369Z,75.06
2023-05-17T05:52:27.974Z,71.64
2023-05-17T05:56:40.829Z,71.32
2023-05-17T06:00:57.532Z,70.38
2023-05-17T06:05:10.024Z,70.00
2023-05-17T06:09:22.309Z,66.14
2023-05-17T06:13:37.243Z,67.35
2023-05-17T06:17:49.803Z,65.56
2023-05-17T06:22:02.380Z,66.46
2023-05-17T06:26:14.843Z,65.20
2023-05-17T06:30:28.119Z,64.50
2023-05-17T06:34:40.712Z,64.14
2023-05-17T06:38:53.310Z,60.65
2023-05-17T06:43:05.783Z,57.72
2023-05-17T06:47:18.752Z,55.58
2023-05-17T06:51:31.914Z,58.78
2023-05-17T06:55:44.412Z,57.47
2023-05-17T06:59:57.032Z,58.59
2023-05-17T07:04:09.484Z,56.70
2023-05-17T07:08:22.076Z,57.15
2023-05-17T07:12:34.731Z,56.01
2023-05-17T07:16:48.271Z,55.72
2023-05-17T07:21:00.842Z,55.60
2023-05-17T07:25:13.588Z,51.36
2023-05-17T07:29:26.256Z,55.00
2023-05-17T07:33:38.870Z,50.94
2023-05-17T07:37:51.329Z,50.38
2023-05-17T07:42:05.442Z,50.92
2023-05-17T07:46:18.540Z,48.72
2023-05-17T07:50:31.449Z,47.77
2023-05-17T07:54:43.833Z,44.26
2023-05-17T07:58:56.414Z,46.17
2023-05-17T08:03:08.954Z,46.88
2023-05-17T08:07:21.404Z,41.73
2023-05-17T08:11:35.337Z,42.59
2023-05-17T08:15:50.080Z,43.88
2023-05-17T08:20:06.535Z,41.70
2023-05-17T08:24:19.422Z,41.31
2023-05-17T08:28:32.351Z,42.45
2023-05-17T08:32:45.685Z,41.30
2023-05-17T08:36:58.390Z,40.47
2023-05-17T08:41:11.068Z,41.37
2023-05-17T08:45:24.173Z,40.95
2023-05-17T08:49:38.311Z,38.84
2023-05-17T08:53:51.049Z,40.49
2023-05-17T08:58:06.264Z,39.11
2023-05-17T09:02:19.743Z,36.66
2023-05-17T09:06:33.700Z,36.84
2023-05-17T09:10:46.459Z,34.02
2023-05-17T09:15:14.544Z,33.82
2023-05-17T09:19:27.264Z,37.00
2023-05-17T09:23:41.447Z,37.61
2023-05-17T09:27:55.628Z,39.62
2023-05-17T09:32:18.983Z,36.95
2023-05-17T09:36:32.366Z,35.15
2023-05-17T09:40:46.738Z,35.39
2023-05-17T09:45:00.235Z,35.73
2023-05-17T09:49:13.810Z,34.01
2023-05-17T09:53:29.267Z,35.26
2023-05-17T09:57:41.944Z,34.38
2023-05-17T10:01:55.321Z,33.61
2023-05-17T10:06:13.416Z,33.44
2023-05-17T10:10:33.410Z,35.17
2023-05-17T10:14:46.265Z,36.95
2023-05-17T10:18:58.957Z,36.63
2023-05-17T10:23:17.136Z,34.96
2023-05-17T10:27:31.191Z,35.08
2023-05-17T10:31:45.670Z,34.67
2023-05-17T10:35:59.576Z,34.90
2023-05-17T10:40:15.540Z,35.19
2023-05-17T10:44:30.835Z,33.77
2023-05-17T10:48:45.029Z,33.63
2023-05-17T10:52:59.214Z,32.95
2023-05-17T11:02:07.842Z,32.88
2023-05-17T11:06:24.570Z,31.23
2023-05-17T11:10:37.850Z,32.83
2023-05-17T11:14:53.825Z,34.72
2023-05-17T11:19:11.770Z,33.45
2023-05-17T11:23:25.139Z,36.51
2023-05-17T11:27:48.051Z,34.47
2023-05-17T11:32:07.472Z,33.74
2023-05-17T11:36:22.254Z,34.15
2023-05-17T11:40:34.901Z,34.75
2023-05-17T11:44:47.987Z,36.27
2023-05-17T11:49:02.001Z,36.12
2023-05-17T11:53:15.910Z,36.29
2023-05-17T11:57:32.831Z,35.36
2023-05-17T12:01:50.025Z,41.72
2023-05-17T12:06:06.085Z,43.36
2023-05-17T12:10:18.882Z,43.56
2023-05-17T12:14:31.380Z,44.85
2023-05-17T12:18:46.708Z,47.66
2023-05-17T12:22:59.271Z,46.57
2023-05-17T12:27:12.107Z,48.04
2023-05-17T12:31:29.931Z,49.65
2023-05-17T12:35:42.630Z,51.77
2023-05-17T12:39:56.461Z,50.76
2023-05-17T12:48:26.922Z,53.73
2023-05-17T12:52:41.472Z,52.82
2023-05-17T12:56:54.416Z,53.08
2023-05-17T13:01:07.775Z,52.61
2023-05-17T13:05:23.285Z,52.51
2023-05-17T13:09:48.291Z,51.25
2023-05-17T13:14:00.813Z,51.54
2023-05-17T13:18:16.347Z,54.88
2023-05-17T13:22:28.847Z,56.82
2023-05-17T13:26:41.378Z,59.79
2023-05-17T13:30:53.855Z,62.94
2023-05-17T13:35:06.898Z,64.67
2023-05-17T13:39:20.039Z,67.51
2023-05-17T13:43:32.418Z,66.42
2023-05-17T13:47:45.070Z,67.88
2023-05-17T13:51:57.980Z,65.90
2023-05-17T13:56:10.437Z,66.30
2023-05-17T14:00:23.197Z,65.06
2023-05-17T14:04:35.655Z,61.60
2023-05-17T14:08:48.193Z,59.60
2023-05-17T14:13:00.691Z,59.26
2023-05-17T14:17:13.139Z,63.38
2023-05-17T14:21:25.547Z,61.79
2023-05-17T14:25:38.062Z,62.96
2023-05-17T14:29:50.449Z,67.57
2023-05-17T14:34:04.228Z,68.21
2023-05-17T14:38:17.005Z,69.39
2023-05-17T14:42:31.105Z,70.08
2023-05-17T14:46:43.473Z,69.33
2023-05-17T14:50:55.995Z,68.75
2023-05-17T14:55:09.620Z,67.64
2023-05-17T14:59:22.300Z,66.43
2023-05-17T15:03:35.307Z,64.98
2023-05-17T15:07:47.942Z,64.16
2023-05-17T15:12:01.820Z,63.49
2023-05-17T15:16:14.278Z,64.54
2023-05-17T15:20:26.765Z,64.93
2023-05-17T15:24:39.910Z,66.42
2023-05-17T15:28:52.451Z,65.18
2023-05-17T15:33:05.115Z,64.17
2023-05-17T15:37:17.643Z,62.01
2023-05-17T15:41:31.987Z,61.91
2023-05-17T15:45:44.444Z,62.40
2023-05-17T15:49:58.397Z,62.62
2023-05-17T15:54:11.004Z,63.08
2023-05-17T15:58:25.903Z,65.41
2023-05-17T16:02:38.398Z,65.18
2023-05-17T16:06:50.963Z,65.73
2023-05-17T16:11:03.754Z,66.55
2023-05-17T16:15:16.521Z,66.00
2023-05-17T16:19:30.866Z,65.60
2023-05-17T16:23:43.820Z,68.20
2023-05-17T16:27:56.199Z,69.46
2023-05-17T16:32:08.700Z,69.47
2023-05-17T16:36:22.957Z,71.06
2023-05-17T16:40:35.882Z,70.68
2023-05-17T16:44:48.326Z,70.92
2023-05-17T16:49:00.767Z,70.34
2023-05-17T16:53:13.185Z,70.12
2023-05-17T16:57:25.692Z,70.43
2023-05-17T17:05:51.018Z,68.72
2023-05-17T17:10:03.870Z,68.14
2023-05-17T17:14:16.599Z,68.40
2023-05-17T17:18:29.725Z,68.21
2023-05-17T17:22:42.344Z,67.85
2023-05-17T17:26:54.823Z,68.91
2023-05-17T17:35:20.094Z,71.09
2023-05-17T17:39:32.512Z,71.89
2023-05-17T17:43:47.272Z,72.85
2023-05-17T17:47:59.741Z,73.40
2023-05-17T17:52:16.470Z,73.23
2023-05-17T17:56:29.008Z,73.23
2023-05-17T18:00:41.876Z,73.61
2023-05-17T18:04:55.507Z,74.48
2023-05-17T18:09:08.604Z,73.98
2023-05-17T18:13:21.125Z,73.58
2023-05-17T18:17:34.868Z,74.10
2023-05-17T18:21:47.480Z,75.01
2023-05-17T18:25:59.956Z,75.16
2023-05-17T18:30:12.852Z,75.46
2023-05-17T18:34:25.870Z,77.08
2023-05-17T18:38:38.389Z,75.35
2023-05-17T18:42:50.999Z,75.36
2023-05-17T18:47:03.877Z,76.20
2023-05-17T18:51:16.362Z,76.94
2023-05-17T18:55:28.813Z,75.31
2023-05-17T18:59:41.841Z,75.57
2023-05-17T19:03:57.620Z,76.15
2023-05-17T19:08:09.999Z,76.71
2023-05-17T19:12:23.613Z,77.22
2023-05-17T19:16:36.447Z,77.82
2023-05-17T19:20:49.072Z,78.86
2023-05-17T19:25:01.538Z,79.58
2023-05-17T19:29:13.938Z,80.39
2023-05-17T19:33:26.839Z,81.19
2023-05-17T19:37:39.332Z,81.55
2023-05-17T19:41:51.908Z,81.83
2023-05-17T19:46:04.439Z,82.13
2023-05-17T19:50:17.182Z,81.45
2023-05-17T19:54:30.254Z,82.20
2023-05-17T19:58:42.667Z,81.71
2023-05-17T20:02:55.250Z,82.76
2023-05-17T20:07:07.906Z,83.30
2023-05-17T20:11:20.438Z,83.31
2023-05-17T20:15:33.020Z,83.39
2023-05-17T20:19:45.464Z,84.49
2023-05-17T20:24:01.708Z,84.59
2023-05-17T20:28:14.401Z,84.17
2023-05-17T20:32:26.965Z,83.83
2023-05-17T20:36:39.369Z,84.18
2023-05-17T20:40:52.451Z,83.98
2023-05-17T20:45:05.732Z,83.76
2023-05-17T20:49:18.415Z,84.24
2023-05-17T20:53:31.278Z,84.68
2023-05-17T20:57:44.805Z,83.39
2023-05-17T21:01:57.956Z,84.14
2023-05-17T21:06:11.356Z,83.88
2023-05-17T21:10:23.787Z,84.38
2023-05-17T21:14:36.189Z,84.39
2023-05-17T21:18:48.614Z,84.21
2023-05-17T21:23:01.023Z,84.42
2023-05-17T21:27:13.481Z,84.20
2023-05-17T21:31:28.407Z,84.49
2023-05-17T21:35:40.834Z,85.03
2023-05-17T21:39:53.276Z,85.46
2023-05-17T21:44:05.908Z,84.82
2023-05-17T21:48:18.227Z,85.10
2023-05-17T21:52:30.773Z,84.17
2023-05-17T21:56:43.122Z,83.76
2023-05-17T22:00:55.502Z,83.42
2023-05-17T22:05:08.246Z,84.00
2023-05-17T22:09:20.677Z,84.29
2023-05-17T22:13:33.223Z,85.11
2023-05-17T22:17:51.882Z,84.14
2023-05-17T22:22:05.484Z,84.00
2023-05-17T22:26:17.789Z,84.84
2023-05-17T22:30:30.388Z,85.84
2023-05-17T22:34:43.378Z,86.75
2023-05-17T22:38:56.975Z,86.38
2023-05-17T22:43:10.910Z,85.20
2023-05-17T22:47:24.440Z,84.96
2023-05-17T22:51:37.191Z,86.07
2023-05-17T22:55:50.137Z,86.77
2023-05-17T23:00:05.278Z,87.15
2023-05-17T23:04:17.771Z,87.01
2023-05-17T23:08:30.623Z,87.52
2023-05-17T23:12:43.064Z,85.73
2023-05-17T23:16:55.478Z,84.80
2023-05-17T23:21:08.514Z,86.31
2023-05-17T23:25:21.476Z,86.31
2023-05-17T23:29:34.089Z,86.32
2023-05-17T23:33:46.502Z,84.77
2023-05-17T23:38:00.692Z,84.99
2023-05-17T23:42:13.439Z,84.65
2023-05-17T23:46:25.999Z,84.84
2023-05-17T23:50:39.499Z,84.98
2023-05-17T23:54:52.253Z,85.66
2023-05-17T23:59:04.732Z,87.23
